createdAt,value
2023-04-30T00:00:29.008Z,4.26
2023-04-30T00:01:00.764Z,4.15
2023-04-30T00:01:32.907Z,4.15
2023-04-30T00:02:04.762Z,4.15
2023-04-30T00:02:36.983Z,4.15
2023-04-30T00:03:08.607Z,4.31
2023-04-30T00:03:40.793Z,4.31
2023-04-30T00:04:12.689Z,4.31
2023-04-30T00:04:44.756Z,4.31
2023-04-30T00:05:16.526Z,4.31
2023-04-30T00:05:48.512Z,4.31
2023-04-30T00:06:20.758Z,4.19
2023-04-30T00:06:52.565Z,4.19
2023-04-30T00:07:24.459Z,4.19
2023-04-30T00:07:56.451Z,4.19
2023-04-30T00:08:28.763Z,4.19
2023-04-30T00:09:00.792Z,4.19
2023-04-30T00:09:32.439Z,4.08
2023-04-30T00:10:04.411Z,4.08
2023-04-30T00:10:36.394Z,4.08
2023-04-30T00:11:08.508Z,4.08
2023-04-30T00:11:40.296Z,4.23
2023-04-30T00:12:12.409Z,4.23
2023-04-30T00:12:44.304Z,4.23
2023-04-30T00:13:16.445Z,4.23
2023-04-30T00:13:48.358Z,4.23
2023-04-30T00:14:20.557Z,4.23
2023-04-30T00:14:52.227Z,4.23
2023-04-30T00:15:24.461Z,4.23
2023-04-30T00:15:56.159Z,4.23
2023-04-30T00:16:28.217Z,4.23
2023-04-30T00:17:00.369Z,4.23
2023-04-30T00:17:32.180Z,4.23
2023-04-30T00:18:04.011Z,4.23
2023-04-30T00:18:36.091Z,4.23
2023-04-30T00:19:08.386Z,4.23
2023-04-30T00:19:40.079Z,4.23
2023-04-30T00:20:11.921Z,4.23
2023-04-30T00:20:43.946Z,4.23
2023-04-30T00:21:15.930Z,4.23
2023-04-30T00:21:48.218Z,4.34
2023-04-30T00:22:19.789Z,4.34
2023-04-30T00:22:51.868Z,4.34
2023-04-30T00:23:23.960Z,4.34
2023-04-30T00:23:56.028Z,4.46
2023-04-30T00:24:27.728Z,4.46
2023-04-30T00:24:59.763Z,4.46
2023-04-30T00:25:31.792Z,4.46
2023-04-30T00:26:03.608Z,4.57
2023-04-30T00:26:35.662Z,4.42
2023-04-30T00:27:07.663Z,4.42
2023-04-30T00:27:40.912Z,4.53
2023-04-30T00:28:11.738Z,4.53
2023-04-30T00:28:43.521Z,4.53
2023-04-30T00:29:15.668Z,4.58
2023-04-30T00:29:47.611Z,4.58
2023-04-30T00:30:19.725Z,4.58
2023-04-30T00:30:51.536Z,4.42
2023-04-30T00:31:23.556Z,4.42
2023-04-30T00:31:55.577Z,4.53
2023-04-30T00:32:27.530Z,4.53
2023-04-30T00:32:59.525Z,4.53
2023-04-30T00:33:31.496Z,4.53
2023-04-30T00:34:03.539Z,4.53
2023-04-30T00:34:35.458Z,4.53
2023-04-30T00:35:07.291Z,4.53
2023-04-30T00:35:39.354Z,4.53
2023-04-30T00:36:11.405Z,4.53
2023-04-30T00:36:43.164Z,4.42
2023-04-30T00:37:15.185Z,4.42
2023-04-30T00:37:47.277Z,4.42
2023-04-30T00:38:19.391Z,4.42
2023-04-30T00:38:51.165Z,4.42
2023-04-30T00:39:23.242Z,4.42
2023-04-30T00:39:55.645Z,4.42
2023-04-30T00:40:27.358Z,4.42
2023-04-30T00:40:59.190Z,4.42
2023-04-30T00:41:31.137Z,4.42
2023-04-30T00:42:03.277Z,4.42
2023-04-30T00:42:35.064Z,4.42
2023-04-30T00:43:07.100Z,4.37
2023-04-30T00:43:39.056Z,4.37
2023-04-30T00:44:11.131Z,4.37
2023-04-30T00:44:42.998Z,4.37
2023-04-30T00:45:14.939Z,4.37
2023-04-30T00:45:47.116Z,4.37
2023-04-30T00:46:19.025Z,4.37
2023-04-30T00:46:51.017Z,4.26
2023-04-30T00:47:23.118Z,4.26
2023-04-30T00:47:54.833Z,4.42
2023-04-30T00:48:26.823Z,4.42
2023-04-30T00:48:58.931Z,4.42
2023-04-30T00:49:30.990Z,4.42
2023-04-30T00:50:02.793Z,4.42
2023-04-30T00:50:34.814Z,4.42
2023-04-30T00:51:06.791Z,4.31
2023-04-30T00:51:38.597Z,4.31
2023-04-30T00:52:10.733Z,4.31
2023-04-30T00:52:42.622Z,4.31
2023-04-30T00:53:14.856Z,4.31
2023-04-30T00:53:46.482Z,4.31
2023-04-30T00:54:18.496Z,4.31
2023-04-30T00:54:50.679Z,4.31
2023-04-30T00:55:22.627Z,4.31
2023-04-30T00:55:54.425Z,4.31
2023-04-30T00:56:26.511Z,4.31
2023-04-30T00:56:58.457Z,4.31
2023-04-30T00:57:30.683Z,4.19
2023-04-30T00:58:02.327Z,4.19
2023-04-30T00:58:34.392Z,4.19
2023-04-30T00:59:06.501Z,4.19
2023-04-30T00:59:38.245Z,4.31
2023-04-30T01:00:10.679Z,4.31
2023-04-30T01:00:42.508Z,4.31
2023-04-30T01:01:14.306Z,4.31
2023-04-30T01:01:46.332Z,4.19
2023-04-30T01:02:18.316Z,4.19
2023-04-30T01:02:50.329Z,4.19
2023-04-30T01:03:22.351Z,4.19
2023-04-30T01:03:54.058Z,4.19
2023-04-30T01:04:26.243Z,4.19
2023-04-30T01:04:58.181Z,4.19
2023-04-30T01:05:30.133Z,4.19
2023-04-30T01:06:02.015Z,4.19
2023-04-30T01:06:34.651Z,4.08
2023-04-30T01:07:06.146Z,4.08
2023-04-30T01:07:38.127Z,4.08
2023-04-30T01:08:09.848Z,4.08
2023-04-30T01:08:41.975Z,4.08
2023-04-30T01:09:13.916Z,4.08
2023-04-30T01:09:46.137Z,4.08
2023-04-30T01:10:17.999Z,4.18
2023-04-30T01:10:49.790Z,4.04
2023-04-30T01:11:21.894Z,4.18
2023-04-30T01:11:53.912Z,4.18
2023-04-30T01:12:25.887Z,4.18
2023-04-30T01:12:57.761Z,4.18
2023-04-30T01:13:31.657Z,4.18
2023-04-30T01:13:47.070Z,4.18
2023-04-30T01:14:29.759Z,4.08
2023-04-30T01:15:02.854Z,4.08
2023-04-30T01:15:33.785Z,4.08
2023-04-30T01:16:06.616Z,4.08
2023-04-30T01:16:37.516Z,4.08
2023-04-30T01:17:10.521Z,3.97
2023-04-30T01:17:41.586Z,3.97
2023-04-30T01:18:14.666Z,3.85
2023-04-30T01:18:45.775Z,3.85
2023-04-30T01:19:18.361Z,3.85
2023-04-30T01:19:49.496Z,3.74
2023-04-30T01:20:22.677Z,3.74
2023-04-30T01:20:53.363Z,3.74
2023-04-30T01:21:26.299Z,3.69
2023-04-30T01:21:57.547Z,3.69
2023-04-30T01:22:30.265Z,3.69
2023-04-30T01:23:01.447Z,3.69
2023-04-30T01:23:34.411Z,3.58
2023-04-30T01:24:05.530Z,3.58
2023-04-30T01:24:38.079Z,3.58
2023-04-30T01:25:09.313Z,3.58
2023-04-30T01:25:42.147Z,3.47
2023-04-30T01:26:13.289Z,3.62
2023-04-30T01:26:45.871Z,3.62
2023-04-30T01:27:17.150Z,3.62
2023-04-30T01:27:50.732Z,3.50
2023-04-30T01:28:21.361Z,3.50
2023-04-30T01:28:53.921Z,3.50
2023-04-30T01:29:25.082Z,3.50
2023-04-30T01:29:58.475Z,3.50
2023-04-30T01:30:29.070Z,3.39
2023-04-30T01:31:01.805Z,3.39
2023-04-30T01:31:33.017Z,3.39
2023-04-30T01:32:06.029Z,3.39
2023-04-30T01:32:36.834Z,3.39
2023-04-30T01:33:09.842Z,3.39
2023-04-30T01:33:40.965Z,3.34
2023-04-30T01:34:13.939Z,3.34
2023-04-30T01:34:44.857Z,3.34
2023-04-30T01:35:18.018Z,3.34
2023-04-30T01:35:49.047Z,3.34
2023-04-30T01:36:22.145Z,3.34
2023-04-30T01:36:52.673Z,3.34
2023-04-30T01:37:25.575Z,3.34
2023-04-30T01:37:56.680Z,3.34
2023-04-30T01:38:29.832Z,3.34
2023-04-30T01:39:00.672Z,3.34
2023-04-30T01:39:33.597Z,3.34
2023-04-30T01:40:04.666Z,3.34
2023-04-30T01:40:37.474Z,3.34
2023-04-30T01:41:08.579Z,3.23
2023-04-30T01:41:41.367Z,3.23
2023-04-30T01:42:12.544Z,3.23
2023-04-30T01:42:45.465Z,3.39
2023-04-30T01:43:16.545Z,3.39
2023-04-30T01:43:49.578Z,3.39
2023-04-30T01:44:20.842Z,3.39
2023-04-30T01:44:53.668Z,3.39
2023-04-30T01:45:24.456Z,3.28
2023-04-30T01:45:57.217Z,3.28
2023-04-30T01:46:28.569Z,3.28
2023-04-30T01:47:01.421Z,3.28
2023-04-30T01:47:32.395Z,3.28
2023-04-30T01:48:05.310Z,3.16
2023-04-30T01:48:36.380Z,3.16
2023-04-30T01:49:09.016Z,3.16
2023-04-30T01:49:40.163Z,3.16
2023-04-30T01:50:13.220Z,3.16
2023-04-30T01:50:44.233Z,3.16
2023-04-30T01:51:16.933Z,3.16
2023-04-30T01:51:48.309Z,3.16
2023-04-30T01:52:21.519Z,3.16
2023-04-30T01:52:52.306Z,3.05
2023-04-30T01:53:25.059Z,3.05
2023-04-30T01:53:56.030Z,3.05
2023-04-30T01:54:29.023Z,3.05
2023-04-30T01:55:00.149Z,3.05
2023-04-30T01:55:32.785Z,3.00
2023-04-30T01:56:03.951Z,3.00
2023-04-30T01:56:36.943Z,3.00
2023-04-30T01:57:08.049Z,3.00
2023-04-30T01:57:40.915Z,3.00
2023-04-30T01:58:11.835Z,3.00
2023-04-30T01:58:44.887Z,3.00
2023-04-30T01:59:15.868Z,3.00
2023-04-30T01:59:48.689Z,3.00
2023-04-30T02:00:19.986Z,3.00
2023-04-30T02:00:52.720Z,3.00
2023-04-30T02:01:23.825Z,3.00
2023-04-30T02:01:56.541Z,2.90
2023-04-30T02:02:27.770Z,2.90
2023-04-30T02:03:00.623Z,2.90
2023-04-30T02:03:31.837Z,2.90
2023-04-30T02:04:04.941Z,2.90
2023-04-30T02:04:35.788Z,2.90
2023-04-30T02:05:08.600Z,2.90
2023-04-30T02:05:39.412Z,2.79
2023-04-30T02:06:12.519Z,2.79
2023-04-30T02:06:43.594Z,2.79
2023-04-30T02:07:16.426Z,2.93
2023-04-30T02:07:47.330Z,2.93
2023-04-30T02:08:20.330Z,2.93
2023-04-30T02:08:51.441Z,2.93
2023-04-30T02:09:24.221Z,2.93
2023-04-30T02:09:55.783Z,2.93
2023-04-30T02:10:28.165Z,2.93
2023-04-30T02:10:59.336Z,2.93
2023-04-30T02:11:32.087Z,2.93
2023-04-30T02:12:03.252Z,2.93
2023-04-30T02:12:36.335Z,2.93
2023-04-30T02:13:07.375Z,2.93
2023-04-30T02:13:40.363Z,2.93
2023-04-30T02:14:11.229Z,2.93
2023-04-30T02:14:44.157Z,2.81
2023-04-30T02:15:15.289Z,2.81
2023-04-30T02:15:48.070Z,2.81
2023-04-30T02:16:19.208Z,2.81
2023-04-30T02:16:51.992Z,2.81
2023-04-30T02:17:23.287Z,2.81
2023-04-30T02:17:56.027Z,2.81
2023-04-30T02:18:26.958Z,2.81
2023-04-30T02:18:59.965Z,2.81
2023-04-30T02:19:31.101Z,2.81
2023-04-30T02:20:03.954Z,2.81
2023-04-30T02:20:34.975Z,2.81
2023-04-30T02:21:08.008Z,2.70
2023-04-30T02:21:38.941Z,2.70
2023-04-30T02:22:11.835Z,2.70
2023-04-30T02:22:42.803Z,2.70
2023-04-30T02:23:15.794Z,2.70
2023-04-30T02:23:46.818Z,2.70
2023-04-30T02:24:19.609Z,2.70
2023-04-30T02:24:50.815Z,2.70
2023-04-30T02:25:23.726Z,2.70
2023-04-30T02:25:54.933Z,2.65
2023-04-30T02:26:27.605Z,2.65
2023-04-30T02:26:58.711Z,2.65
2023-04-30T02:27:31.644Z,2.65
2023-04-30T02:28:02.688Z,2.65
2023-04-30T02:28:36.008Z,2.65
2023-04-30T02:29:06.626Z,2.65
2023-04-30T02:29:39.461Z,2.65
2023-04-30T02:30:10.791Z,2.65
2023-04-30T02:30:43.440Z,2.55
2023-04-30T02:31:14.549Z,2.55
2023-04-30T02:31:47.419Z,2.55
2023-04-30T02:32:18.342Z,2.55
2023-04-30T02:32:51.428Z,2.55
2023-04-30T02:33:22.402Z,2.55
2023-04-30T02:33:55.917Z,2.55
2023-04-30T02:34:26.233Z,2.55
2023-04-30T02:34:59.443Z,2.55
2023-04-30T02:35:30.528Z,2.55
2023-04-30T02:36:03.411Z,2.55
2023-04-30T02:36:34.240Z,2.55
2023-04-30T02:37:07.312Z,2.44
2023-04-30T02:37:38.218Z,2.44
2023-04-30T02:38:11.372Z,2.44
2023-04-30T02:38:42.063Z,2.44
2023-04-30T02:39:15.066Z,2.44
2023-04-30T02:39:46.100Z,2.44
2023-04-30T02:40:18.989Z,2.44
2023-04-30T02:40:49.988Z,2.32
2023-04-30T02:41:23.089Z,2.32
2023-04-30T02:41:54.088Z,2.32
2023-04-30T02:42:27.060Z,2.32
2023-04-30T02:42:58.002Z,2.32
2023-04-30T02:43:31.287Z,2.32
2023-04-30T02:44:01.974Z,2.32
2023-04-30T02:44:34.689Z,2.32
2023-04-30T02:45:06.114Z,2.21
2023-04-30T02:45:39.127Z,2.21
2023-04-30T02:46:10.017Z,2.21
2023-04-30T02:46:42.878Z,2.21
2023-04-30T02:47:13.726Z,2.21
2023-04-30T02:47:46.689Z,2.21
2023-04-30T02:48:17.987Z,2.21
2023-04-30T02:48:50.882Z,2.21
2023-04-30T02:49:22.089Z,2.21
2023-04-30T02:49:55.067Z,2.21
2023-04-30T02:50:25.714Z,2.21
2023-04-30T02:50:58.472Z,2.21
2023-04-30T02:51:29.590Z,2.21
2023-04-30T02:52:02.597Z,2.21
2023-04-30T02:52:33.591Z,2.21
2023-04-30T02:53:06.437Z,2.35
2023-04-30T02:53:37.513Z,2.35
2023-04-30T02:54:10.722Z,2.35
2023-04-30T02:54:41.528Z,2.35
2023-04-30T02:55:14.464Z,2.35
2023-04-30T02:55:45.429Z,2.35
2023-04-30T02:56:18.376Z,2.35
2023-04-30T02:56:49.500Z,2.35
2023-04-30T02:57:22.054Z,2.46
2023-04-30T02:57:53.399Z,2.35
2023-04-30T02:58:26.309Z,2.35
2023-04-30T02:58:57.365Z,2.35
2023-04-30T02:59:30.184Z,2.35
2023-04-30T03:00:01.660Z,2.35
2023-04-30T03:00:34.149Z,2.35
2023-04-30T03:01:05.392Z,2.35
2023-04-30T03:01:38.067Z,2.30
2023-04-30T03:02:09.264Z,2.30
2023-04-30T03:02:42.443Z,2.30
2023-04-30T03:03:13.420Z,2.30
2023-04-30T03:03:46.031Z,2.30
2023-04-30T03:04:17.150Z,2.30
2023-04-30T03:04:50.121Z,2.30
2023-04-30T03:05:21.199Z,2.30
2023-04-30T03:05:54.048Z,2.30
2023-04-30T03:06:25.090Z,2.30
2023-04-30T03:06:57.895Z,2.30
2023-04-30T03:07:29.141Z,2.19
2023-04-30T03:08:01.737Z,2.19
2023-04-30T03:08:32.884Z,2.19
2023-04-30T03:09:05.918Z,2.19
2023-04-30T03:09:36.735Z,2.19
2023-04-30T03:10:09.676Z,2.19
2023-04-30T03:10:41.000Z,2.19
2023-04-30T03:11:13.999Z,2.19
2023-04-30T03:11:44.787Z,2.19
2023-04-30T03:12:18.015Z,2.19
2023-04-30T03:12:48.913Z,2.19
2023-04-30T03:13:21.628Z,2.19
2023-04-30T03:13:52.557Z,2.19
2023-04-30T03:14:25.702Z,2.19
2023-04-30T03:14:56.708Z,2.19
2023-04-30T03:15:29.681Z,2.19
2023-04-30T03:16:00.647Z,2.19
2023-04-30T03:16:33.405Z,2.19
2023-04-30T03:17:04.531Z,2.08
2023-04-30T03:17:37.703Z,2.08
2023-04-30T03:18:08.586Z,2.08
2023-04-30T03:18:41.400Z,2.08
2023-04-30T03:19:12.592Z,2.08
2023-04-30T03:19:45.409Z,2.08
2023-04-30T03:20:16.351Z,2.08
2023-04-30T03:20:49.295Z,2.08
2023-04-30T03:21:20.560Z,2.08
2023-04-30T03:21:53.595Z,2.08
2023-04-30T03:22:24.415Z,2.19
2023-04-30T03:22:57.291Z,2.19
2023-04-30T03:23:28.300Z,2.19
2023-04-30T03:24:01.448Z,2.19
2023-04-30T03:24:32.369Z,2.30
2023-04-30T03:25:05.101Z,2.30
2023-04-30T03:25:36.195Z,2.30
2023-04-30T03:26:09.257Z,2.30
2023-04-30T03:26:40.050Z,2.30
2023-04-30T03:27:13.001Z,2.30
2023-04-30T03:27:44.215Z,2.30
2023-04-30T03:28:17.157Z,2.35
2023-04-30T03:28:48.341Z,2.35
2023-04-30T03:29:21.045Z,2.35
2023-04-30T03:29:52.335Z,2.35
2023-04-30T03:30:24.938Z,2.46
2023-04-30T03:30:55.900Z,2.46
2023-04-30T03:31:28.939Z,2.46
2023-04-30T03:31:59.962Z,2.46
2023-04-30T03:32:32.802Z,2.46
2023-04-30T03:33:03.847Z,2.46
2023-04-30T03:33:36.844Z,2.46
2023-04-30T03:34:07.941Z,2.46
2023-04-30T03:34:40.682Z,2.35
2023-04-30T03:35:11.779Z,2.35
2023-04-30T03:35:44.630Z,2.35
2023-04-30T03:36:15.832Z,2.35
2023-04-30T03:36:48.565Z,2.35
2023-04-30T03:37:19.723Z,2.35
2023-04-30T03:37:52.661Z,2.35
2023-04-30T03:38:23.657Z,2.35
2023-04-30T03:38:56.565Z,2.35
2023-04-30T03:39:27.617Z,2.30
2023-04-30T03:40:00.905Z,2.30
2023-04-30T03:40:31.603Z,2.30
2023-04-30T03:41:04.455Z,2.30
2023-04-30T03:41:35.488Z,2.30
2023-04-30T03:42:08.554Z,2.30
2023-04-30T03:42:39.520Z,2.30
2023-04-30T03:43:12.484Z,2.30
2023-04-30T03:43:43.415Z,2.30
2023-04-30T03:44:16.440Z,2.19
2023-04-30T03:44:47.511Z,2.19
2023-04-30T03:45:20.319Z,2.19
2023-04-30T03:45:51.505Z,2.19
2023-04-30T03:46:24.368Z,2.19
2023-04-30T03:46:55.583Z,2.19
2023-04-30T03:47:28.348Z,2.08
2023-04-30T03:47:59.349Z,2.08
2023-04-30T03:48:32.578Z,2.08
2023-04-30T03:49:03.366Z,2.08
2023-04-30T03:49:36.257Z,2.08
2023-04-30T03:50:07.151Z,2.08
2023-04-30T03:50:40.354Z,2.08
2023-04-30T03:51:11.287Z,2.08
2023-04-30T03:51:43.947Z,2.08
2023-04-30T03:52:15.216Z,1.96
2023-04-30T03:52:48.219Z,1.96
2023-04-30T03:53:19.094Z,1.96
2023-04-30T03:53:52.020Z,1.96
2023-04-30T03:54:22.975Z,1.96
2023-04-30T03:54:55.850Z,1.96
2023-04-30T03:55:27.056Z,1.96
2023-04-30T03:55:59.807Z,1.96
2023-04-30T03:56:31.083Z,1.86
2023-04-30T03:57:04.059Z,1.86
2023-04-30T03:57:35.115Z,1.86
2023-04-30T03:58:08.223Z,1.86
2023-04-30T03:58:38.804Z,1.86
2023-04-30T03:59:11.796Z,1.86
2023-04-30T03:59:42.750Z,1.86
2023-04-30T04:00:15.881Z,1.86
2023-04-30T04:00:46.856Z,1.81
2023-04-30T04:01:19.778Z,1.81
2023-04-30T04:01:50.912Z,1.81
2023-04-30T04:02:23.647Z,1.81
2023-04-30T04:02:54.740Z,1.81
2023-04-30T04:03:27.779Z,1.81
2023-04-30T04:03:58.560Z,1.81
2023-04-30T04:04:31.583Z,1.81
2023-04-30T04:05:02.651Z,1.81
2023-04-30T04:05:36.998Z,1.81
2023-04-30T04:06:06.472Z,1.81
2023-04-30T04:06:39.575Z,1.81
2023-04-30T04:07:10.677Z,1.81
2023-04-30T04:07:43.509Z,1.81
2023-04-30T04:08:14.430Z,1.70
2023-04-30T04:08:47.432Z,1.70
2023-04-30T04:09:18.603Z,1.70
2023-04-30T04:09:51.382Z,1.70
2023-04-30T04:10:22.359Z,1.70
2023-04-30T04:10:55.481Z,1.70
2023-04-30T04:11:26.315Z,1.70
2023-04-30T04:11:59.467Z,1.70
2023-04-30T04:12:30.183Z,1.70
2023-04-30T04:13:03.103Z,1.70
2023-04-30T04:13:34.210Z,1.70
2023-04-30T04:14:06.952Z,1.70
2023-04-30T04:14:38.219Z,1.70
2023-04-30T04:15:11.256Z,1.70
2023-04-30T04:15:42.154Z,1.70
2023-04-30T04:16:15.114Z,1.70
2023-04-30T04:16:46.197Z,1.70
2023-04-30T04:17:19.271Z,1.70
2023-04-30T04:17:50.092Z,1.70
2023-04-30T04:18:23.261Z,1.70
2023-04-30T04:18:53.996Z,1.70
2023-04-30T04:19:26.959Z,1.70
2023-04-30T04:19:58.108Z,1.70
2023-04-30T04:20:31.068Z,1.70
2023-04-30T04:21:02.031Z,1.70
2023-04-30T04:21:35.160Z,1.70
2023-04-30T04:22:05.874Z,1.70
2023-04-30T04:22:38.804Z,1.70
2023-04-30T04:23:09.811Z,1.70
2023-04-30T04:23:42.772Z,1.70
2023-04-30T04:24:13.828Z,1.70
2023-04-30T04:24:46.961Z,1.70
2023-04-30T04:25:17.794Z,1.70
2023-04-30T04:25:50.736Z,1.70
2023-04-30T04:26:21.866Z,1.59
2023-04-30T04:26:54.429Z,1.59
2023-04-30T04:27:25.567Z,1.59
2023-04-30T04:27:58.684Z,1.59
2023-04-30T04:28:29.632Z,1.59
2023-04-30T04:29:02.730Z,1.59
2023-04-30T04:29:33.550Z,1.59
2023-04-30T04:30:06.782Z,1.59
2023-04-30T04:30:37.666Z,1.59
2023-04-30T04:31:10.478Z,1.59
2023-04-30T04:31:41.734Z,1.59
2023-04-30T04:32:14.362Z,1.59
2023-04-30T04:32:45.492Z,1.59
2023-04-30T04:33:18.363Z,1.59
2023-04-30T04:33:49.409Z,1.59
2023-04-30T04:34:22.810Z,1.83
2023-04-30T04:34:53.372Z,1.83
2023-04-30T04:35:26.502Z,1.70
2023-04-30T04:35:57.406Z,1.70
2023-04-30T04:36:30.395Z,1.70
2023-04-30T04:37:01.587Z,1.70
2023-04-30T04:37:34.084Z,1.70
2023-04-30T04:38:05.253Z,1.70
2023-04-30T04:38:38.291Z,1.70
2023-04-30T04:39:09.161Z,1.70
2023-04-30T04:39:42.328Z,1.70
2023-04-30T04:40:13.113Z,1.70
2023-04-30T04:40:45.922Z,1.70
2023-04-30T04:41:17.134Z,1.70
2023-04-30T04:41:49.815Z,1.70
2023-04-30T04:42:21.085Z,1.70
2023-04-30T04:42:54.073Z,1.59
2023-04-30T04:43:25.071Z,1.59
2023-04-30T04:43:57.940Z,1.59
2023-04-30T04:44:28.948Z,1.59
2023-04-30T04:45:02.093Z,1.59
2023-04-30T04:45:32.931Z,1.59
2023-04-30T04:46:05.696Z,1.59
2023-04-30T04:46:36.819Z,1.59
2023-04-30T04:47:09.883Z,1.59
2023-04-30T04:47:41.050Z,1.59
2023-04-30T04:48:13.886Z,1.59
2023-04-30T04:48:44.699Z,1.72
2023-04-30T04:49:17.656Z,1.72
2023-04-30T04:49:48.768Z,1.83
2023-04-30T04:50:21.627Z,1.83
2023-04-30T04:50:52.659Z,1.83
2023-04-30T04:51:25.921Z,1.83
2023-04-30T04:51:56.472Z,1.83
2023-04-30T04:52:29.692Z,1.83
2023-04-30T04:53:00.903Z,1.94
2023-04-30T04:53:34.834Z,1.94
2023-04-30T04:54:04.406Z,1.94
2023-04-30T04:54:38.258Z,1.94
2023-04-30T04:55:08.460Z,1.94
2023-04-30T04:55:41.436Z,1.94
2023-04-30T04:56:12.351Z,1.94
2023-04-30T04:56:45.284Z,1.94
2023-04-30T04:57:16.449Z,1.94
2023-04-30T04:57:49.615Z,1.99
2023-04-30T04:58:20.421Z,1.99
2023-04-30T04:58:53.316Z,1.99
2023-04-30T04:59:24.538Z,1.99
2023-04-30T04:59:57.400Z,1.99
2023-04-30T05:00:28.252Z,1.99
2023-04-30T05:01:01.276Z,2.10
2023-04-30T05:01:32.461Z,2.10
2023-04-30T05:02:05.403Z,2.10
2023-04-30T05:02:36.193Z,2.10
2023-04-30T05:03:09.266Z,2.10
2023-04-30T05:03:40.236Z,2.10
2023-04-30T05:04:12.859Z,2.10
2023-04-30T05:04:43.988Z,2.22
2023-04-30T05:05:17.222Z,2.22
2023-04-30T05:05:48.168Z,2.22
2023-04-30T05:06:21.759Z,2.22
2023-04-30T05:06:52.144Z,2.22
2023-04-30T05:07:24.826Z,2.33
2023-04-30T05:07:56.037Z,2.33
2023-04-30T05:08:29.460Z,2.33
2023-04-30T05:08:59.828Z,2.33
2023-04-30T05:09:32.750Z,2.33
2023-04-30T05:10:03.970Z,2.44
2023-04-30T05:10:36.811Z,2.44
2023-04-30T05:11:07.716Z,2.44
2023-04-30T05:11:41.078Z,2.44
2023-04-30T05:12:11.795Z,2.49
2023-04-30T05:12:44.757Z,2.49
2023-04-30T05:13:15.606Z,2.49
2023-04-30T05:13:48.880Z,2.49
2023-04-30T05:14:19.885Z,2.60
2023-04-30T05:14:52.517Z,2.60
2023-04-30T05:15:23.723Z,2.60
2023-04-30T05:15:56.462Z,2.60
2023-04-30T05:16:27.638Z,2.60
2023-04-30T05:17:00.586Z,2.72
2023-04-30T05:17:31.852Z,2.72
2023-04-30T05:18:04.710Z,2.72
2023-04-30T05:18:35.558Z,2.72
2023-04-30T05:19:08.558Z,2.72
2023-04-30T05:19:39.461Z,2.83
2023-04-30T05:20:12.458Z,2.83
2023-04-30T05:20:43.659Z,2.83
2023-04-30T05:21:16.096Z,2.83
2023-04-30T05:21:47.387Z,2.83
2023-04-30T05:22:20.232Z,2.83
2023-04-30T05:22:51.452Z,2.83
2023-04-30T05:23:24.376Z,2.83
2023-04-30T05:23:55.491Z,2.94
2023-04-30T05:24:28.420Z,2.94
2023-04-30T05:24:59.318Z,2.94
2023-04-30T05:25:32.199Z,2.94
2023-04-30T05:26:03.197Z,2.99
2023-04-30T05:26:36.085Z,2.99
2023-04-30T05:27:07.354Z,2.99
2023-04-30T05:27:40.131Z,2.99
2023-04-30T05:28:11.272Z,3.10
2023-04-30T05:28:43.968Z,3.10
2023-04-30T05:29:15.067Z,3.10
2023-04-30T05:29:48.070Z,3.10
2023-04-30T05:30:19.010Z,3.22
2023-04-30T05:30:51.886Z,3.22
2023-04-30T05:31:23.002Z,3.22
2023-04-30T05:31:56.010Z,3.22
2023-04-30T05:32:26.908Z,3.33
2023-04-30T05:32:59.823Z,3.33
2023-04-30T05:33:31.013Z,3.33
2023-04-30T05:34:03.770Z,3.33
2023-04-30T05:34:34.790Z,3.44
2023-04-30T05:35:07.734Z,3.44
2023-04-30T05:35:39.170Z,3.44
2023-04-30T05:36:11.671Z,3.44
2023-04-30T05:36:44.285Z,3.49
2023-04-30T05:37:15.606Z,3.49
2023-04-30T05:37:46.763Z,3.49
2023-04-30T05:38:19.826Z,3.60
2023-04-30T05:38:50.700Z,3.60
2023-04-30T05:39:23.711Z,3.60
2023-04-30T05:39:54.710Z,3.60
2023-04-30T05:40:27.310Z,3.72
2023-04-30T05:40:58.520Z,3.72
2023-04-30T05:41:31.734Z,3.72
2023-04-30T05:42:02.424Z,3.72
2023-04-30T05:42:35.999Z,3.83
2023-04-30T05:43:06.464Z,3.83
2023-04-30T05:43:39.928Z,3.83
2023-04-30T05:44:10.425Z,3.83
2023-04-30T05:44:43.559Z,3.83
2023-04-30T05:45:14.424Z,3.83
2023-04-30T05:45:47.422Z,3.83
2023-04-30T05:46:18.463Z,3.83
2023-04-30T05:46:51.363Z,3.93
2023-04-30T05:47:22.308Z,3.93
2023-04-30T05:47:55.211Z,3.93
2023-04-30T05:48:26.365Z,3.93
2023-04-30T05:48:59.428Z,3.93
2023-04-30T05:49:30.197Z,3.98
2023-04-30T05:50:03.280Z,3.98
2023-04-30T05:50:34.508Z,4.09
2023-04-30T05:51:07.238Z,4.32
2023-04-30T05:51:38.265Z,4.30
2023-04-30T05:52:11.453Z,4.35
2023-04-30T05:52:42.150Z,4.35
2023-04-30T05:53:15.137Z,4.35
2023-04-30T05:53:46.088Z,4.46
2023-04-30T05:54:18.907Z,4.58
2023-04-30T05:54:50.220Z,4.68
2023-04-30T05:55:22.982Z,4.54
2023-04-30T05:55:54.007Z,4.54
2023-04-30T05:56:26.948Z,4.54
2023-04-30T05:56:57.955Z,4.54
2023-04-30T05:57:30.908Z,4.54
2023-04-30T05:58:01.900Z,4.50
2023-04-30T05:58:35.058Z,4.65
2023-04-30T05:59:05.808Z,4.49
2023-04-30T05:59:38.746Z,4.49
2023-04-30T06:00:10.308Z,4.61
2023-04-30T06:00:42.812Z,4.57
2023-04-30T06:01:13.609Z,4.53
2023-04-30T06:01:46.566Z,4.42
2023-04-30T06:02:17.671Z,4.26
2023-04-30T06:02:50.721Z,4.36
2023-04-30T06:03:21.730Z,4.21
2023-04-30T06:03:54.824Z,4.17
2023-04-30T06:04:25.636Z,4.12
2023-04-30T06:04:58.532Z,4.22
2023-04-30T06:05:29.572Z,4.22
2023-04-30T06:06:02.713Z,4.27
2023-04-30T06:06:33.826Z,4.27
2023-04-30T06:07:06.736Z,4.27
2023-04-30T06:07:37.447Z,4.22
2023-04-30T06:08:10.721Z,4.22
2023-04-30T06:08:41.930Z,4.22
2023-04-30T06:09:14.252Z,4.22
2023-04-30T06:09:45.404Z,4.22
2023-04-30T06:10:18.315Z,4.22
2023-04-30T06:10:49.346Z,4.34
2023-04-30T06:11:22.147Z,4.17
2023-04-30T06:11:53.234Z,4.28
2023-04-30T06:12:26.110Z,4.28
2023-04-30T06:12:57.335Z,4.28
2023-04-30T06:13:30.147Z,4.28
2023-04-30T06:14:01.394Z,4.28
2023-04-30T06:14:34.415Z,4.28
2023-04-30T06:15:05.499Z,4.28
2023-04-30T06:15:38.132Z,4.28
2023-04-30T06:16:09.149Z,4.39
2023-04-30T06:16:42.113Z,4.39
2023-04-30T06:17:13.084Z,4.21
2023-04-30T06:17:46.082Z,4.21
2023-04-30T06:18:17.001Z,4.21
2023-04-30T06:18:51.677Z,4.21
2023-04-30T06:19:21.224Z,4.39
2023-04-30T06:19:54.105Z,4.21
2023-04-30T06:20:24.955Z,4.21
2023-04-30T06:20:58.510Z,4.21
2023-04-30T06:21:28.830Z,4.26
2023-04-30T06:22:01.679Z,4.26
2023-04-30T06:22:33.409Z,4.26
2023-04-30T06:23:05.976Z,4.26
2023-04-30T06:23:36.855Z,4.37
2023-04-30T06:24:09.915Z,4.37
2023-04-30T06:24:41.088Z,4.37
2023-04-30T06:25:13.771Z,4.37
2023-04-30T06:25:44.608Z,4.37
2023-04-30T06:26:17.606Z,4.31
2023-04-30T06:26:48.732Z,4.42
2023-04-30T06:27:21.400Z,4.53
2023-04-30T06:27:52.561Z,4.53
2023-04-30T06:28:25.777Z,4.58
2023-04-30T06:28:56.576Z,4.58
2023-04-30T06:29:29.405Z,4.68
2023-04-30T06:30:00.851Z,4.52
2023-04-30T06:30:33.374Z,4.52
2023-04-30T06:31:04.626Z,4.64
2023-04-30T06:31:37.345Z,4.64
2023-04-30T06:32:08.732Z,4.80
2023-04-30T06:32:41.754Z,4.52
2023-04-30T06:33:12.505Z,4.52
2023-04-30T06:33:45.496Z,4.52
2023-04-30T06:34:16.474Z,4.52
2023-04-30T06:34:49.194Z,4.52
2023-04-30T06:35:20.449Z,4.52
2023-04-30T06:35:53.175Z,4.52
2023-04-30T06:36:24.261Z,4.52
2023-04-30T06:36:57.234Z,4.52
2023-04-30T06:37:28.254Z,4.52
2023-04-30T06:38:01.242Z,4.52
2023-04-30T06:38:32.190Z,4.52
2023-04-30T06:39:05.337Z,4.35
2023-04-30T06:39:36.356Z,4.46
2023-04-30T06:40:08.858Z,4.39
2023-04-30T06:40:40.376Z,4.39
2023-04-30T06:41:13.139Z,4.39
2023-04-30T06:41:44.104Z,4.50
2023-04-30T06:42:16.824Z,4.50
2023-04-30T06:42:48.078Z,4.50
2023-04-30T06:43:21.222Z,4.50
2023-04-30T06:43:51.887Z,4.55
2023-04-30T06:44:24.909Z,4.37
2023-04-30T06:44:55.951Z,4.37
2023-04-30T06:45:28.937Z,4.37
2023-04-30T06:45:59.785Z,4.18
2023-04-30T06:46:32.676Z,4.18
2023-04-30T06:47:04.045Z,4.51
2023-04-30T06:47:37.085Z,4.62
2023-04-30T06:48:08.054Z,4.60
2023-04-30T06:48:41.763Z,4.60
2023-04-30T06:49:11.834Z,4.60
2023-04-30T06:49:44.647Z,4.41
2023-04-30T06:50:15.658Z,4.60
2023-04-30T06:50:51.965Z,4.67
2023-04-30T06:51:19.829Z,4.44
2023-04-30T06:51:52.572Z,4.25
2023-04-30T06:52:23.480Z,4.25
2023-04-30T06:52:56.656Z,4.22
2023-04-30T06:53:27.676Z,4.24
2023-04-30T06:54:00.499Z,4.35
2023-04-30T06:54:31.802Z,4.55
2023-04-30T06:55:04.419Z,4.55
2023-04-30T06:55:35.288Z,4.74
2023-04-30T06:56:08.369Z,4.53
2023-04-30T06:56:39.514Z,4.49
2023-04-30T06:57:12.308Z,4.30
2023-04-30T06:57:43.615Z,4.30
2023-04-30T06:58:16.439Z,4.30
2023-04-30T06:58:47.329Z,4.60
2023-04-30T06:59:20.343Z,4.41
2023-04-30T06:59:51.545Z,4.60
2023-04-30T07:00:24.156Z,4.60
2023-04-30T07:00:55.312Z,4.60
2023-04-30T07:01:28.337Z,4.67
2023-04-30T07:01:59.382Z,4.49
2023-04-30T07:02:31.978Z,4.49
2023-04-30T07:03:03.271Z,4.49
2023-04-30T07:03:36.320Z,4.49
2023-04-30T07:04:07.011Z,4.49
2023-04-30T07:04:39.813Z,4.49
2023-04-30T07:05:11.374Z,4.41
2023-04-30T07:05:44.142Z,4.53